Time;durP1;ratioP1;P1;durP2;ratioP2;P2;SDS_P1;SDS_P2;PMS_P1;PMS_P2;Temp;Humidity;BMP_temperature;BMP_pressure;BME280_temperature;BME280_humidity;BME280_pressure;Samples;Min_cycle;Max_cycle;Signal;HPM_P1;HPM_P2
2022/08/26 00:03:01;;;;;;;3.65;3.30;;;;;;;24.96;45.71;99804.19;10372960;28;20474;-76
2022/08/26 00:08:03;;;;;;;3.17;2.73;;;;;;;24.92;45.32;99803.81;10372429;28;20548;-72
2022/08/26 00:13:05;;;;;;;4.22;3.53;;;;;;;24.85;45.65;99794.91;10372836;28;20049;-75
2022/08/26 00:18:08;;;;;;;3.70;3.40;;;;;;;24.82;45.72;99798.09;10380613;28;20049;-72
2022/08/26 00:23:23;;;;;;;4.28;3.20;;;;;;;24.83;45.65;99808.75;10370309;28;21084;-72
2022/08/26 00:28:25;;;;;;;3.55;3.25;;;;;;;24.81;45.96;99808.13;10372890;28;20048;-74
2022/08/26 00:33:26;;;;;;;4.18;3.30;;;;;;;24.81;47.14;99805.41;10369152;28;20049;-74
2022/08/26 00:38:27;;;;;;;4.22;3.83;;;;;;;24.77;46.24;99806.09;10371591;28;20049;-73
2022/08/26 00:43:33;;;;;;;5.13;3.33;;;;;;;24.71;45.81;99810.53;10370120;28;20057;-74
2022/08/26 00:48:52;;;;;;;4.07;3.30;;;;;;;24.66;45.90;99800.34;10371082;28;20053;-75
2022/08/26 00:54:00;;;;;;;3.78;3.25;;;;;;;24.63;47.24;99799.97;10370754;28;20809;-75
2022/08/26 00:59:07;;;;;;;6.20;4.20;;;;;;;24.59;47.47;99804.22;10369000;28;20053;-72
2022/08/26 01:04:10;;;;;;;4.65;3.80;;;;;;;24.52;47.18;99798.81;10371649;28;20584;-73
2022/08/26 01:09:12;;;;;;;4.75;3.78;;;;;;;24.54;46.58;99796.69;10369810;28;20103;-73
2022/08/26 01:14:15;;;;;;;5.68;3.28;;;;;;;24.53;46.63;99795.88;10374395;28;20049;-74
2022/08/26 01:19:36;;;;;;;5.55;3.70;;;;;;;24.51;46.30;99787.09;10370621;28;20049;-75
2022/08/26 01:24:40;;;;;;;4.40;3.17;;;;;;;24.46;46.43;99789.66;10369574;28;20049;-76
2022/08/26 01:29:44;;;;;;;3.90;3.55;;;;;;;24.43;47.54;99789.31;10370385;28;20741;-72
2022/08/26 01:34:47;;;;;;;4.15;3.80;;;;;;;24.38;47.43;99798.16;10371862;28;20049;-73
2022/08/26 01:39:50;;;;;;;;;;;;;;;24.33;48.33;99806.13;10372961;28;20585;-74
2022/08/26 01:45:04;;;;;;;4.35;3.90;;;;;;;24.25;47.79;99809.16;10369839;28;20574;-74
2022/08/26 01:50:10;;;;;;;8.55;4.05;;;;;;;24.27;48.82;99810.56;10369100;28;20058;-76
2022/08/26 01:55:14;;;;;;;5.70;3.95;;;;;;;24.24;48.11;99805.59;10368871;28;20065;-75
2022/08/26 02:00:34;;;;;;;5.25;4.07;;;;;;;24.29;48.22;99810.34;10369329;28;20766;-75
2022/08/26 02:05:36;;;;;;;4.13;3.72;;;;;;;24.28;48.72;99809.53;10369663;28;20519;-75
2022/08/26 02:10:37;;;;;;;5.15;4.65;;;;;;;24.27;49.08;99802.41;10360203;28;20128;-76
2022/08/26 02:15:43;;;;;;;5.32;4.43;;;;;;;24.26;48.77;99803.50;10371425;28;20049;-73
2022/08/26 02:20:45;;;;;;;4.75;4.32;;;;;;;24.20;48.76;99798.94;10374293;28;20073;-74
2022/08/26 02:26:02;;;;;;;5.43;4.20;;;;;;;24.19;49.42;99805.44;10376164;28;20145;-74
2022/08/26 02:31:04;;;;;;;4.97;4.47;;;;;;;24.12;49.56;99810.09;10398130;28;20065;-75
2022/08/26 02:36:08;;;;;;;5.82;4.88;;;;;;;24.09;49.86;99810.53;10385926;28;20107;-72
2022/08/26 02:41:12;;;;;;;5.20;4.70;;;;;;;24.09;50.75;99807.84;10381501;28;20393;-73
2022/08/26 02:46:14;;;;;;;5.20;4.70;;;;;;;24.08;50.28;99798.00;10374292;28;20060;-74
2022/08/26 02:51:30;;;;;;;5.78;4.38;;;;;;;24.09;50.71;99800.50;10368136;28;20041;-75
2022/08/26 02:56:34;;;;;;;5.13;4.72;;;;;;;24.08;49.95;99808.88;10367695;28;20140;-73
2022/08/26 03:01:36;;;;;;;6.97;4.57;;;;;;;24.08;49.97;99803.44;10381229;28;20097;-72
2022/08/26 03:06:38;;;;;;;5.20;4.40;;;;;;;24.09;50.59;99791.53;10382625;28;20643;-75
2022/08/26 03:11:41;;;;;;;6.97;4.88;;;;;;;24.10;50.80;99801.34;10374734;28;20064;-75
2022/08/26 03:16:43;;;;;;;5.53;4.97;;;;;;;24.03;50.32;99797.84;10376181;28;20041;-72
2022/08/26 03:21:49;;;;;;;5.55;4.70;;;;;;;24.05;51.15;99798.44;10371969;28;20147;-76
2022/08/26 03:26:52;;;;;;;5.53;5.03;;;;;;;24.07;51.08;99796.38;10377013;28;20077;-72
2022/08/26 03:31:54;;;;;;;5.60;5.00;;;;;;;24.08;51.37;99789.84;10377073;28;20133;-74
2022/08/26 03:36:55;;;;;;;6.28;5.65;;;;;;;24.09;51.37;99794.25;10374811;28;20151;-76
2022/08/26 03:41:57;;;;;;;5.20;4.70;;;;;;;24.02;52.24;99777.16;10375083;28;20045;-74
2022/08/26 03:46:59;;;;;;;7.35;5.05;;;;;;;23.98;51.24;99793.09;10373941;28;20764;-75
2022/08/26 03:52:02;;;;;;;6.60;5.05;;;;;;;23.91;51.83;99786.88;10373002;28;20045;-75
2022/08/26 03:57:04;;;;;;;4.63;4.13;;;;;;;23.88;50.62;99782.72;10373117;28;20053;-73
2022/08/26 04:02:06;;;;;;;7.15;5.82;;;;;;;23.89;52.65;99784.38;10372144;28;20056;-72
2022/08/26 04:07:12;;;;;;;8.15;5.35;;;;;;;23.93;52.24;99795.63;10372769;28;20500;-76
2022/08/26 04:12:13;;;;;;;5.88;5.30;;;;;;;23.99;51.71;99790.16;10371606;28;20064;-76
2022/08/26 04:17:14;;;;;;;5.43;4.82;;;;;;;24.00;51.31;99791.81;10372736;28;20045;-73
2022/08/26 04:22:17;;;;;;;6.20;4.97;;;;;;;24.00;51.60;99780.94;10370112;28;20064;-72
2022/08/26 04:27:25;;;;;;;6.43;5.72;;;;;;;23.98;51.42;99777.59;10371635;28;20107;-75
2022/08/26 04:32:27;;;;;;;5.78;4.93;;;;;;;23.98;52.74;99785.75;10369003;28;20048;-76
2022/08/26 04:37:30;;;;;;;7.95;5.38;;;;;;;23.96;50.88;99789.75;10370760;28;20045;-73
2022/08/26 04:42:32;;;;;;;5.85;5.07;;;;;;;23.98;51.24;99793.09;10371575;28;20075;-77
2022/08/26 04:47:34;;;;;;;6.50;5.90;;;;;;;23.98;51.80;99788.47;10369126;28;20046;-73
2022/08/26 04:52:36;;;;;;;5.65;5.07;;;;;;;23.99;51.27;99784.72;10363272;28;20049;-73
2022/08/26 04:57:37;;;;;;;6.70;5.30;;;;;;;24.05;51.19;99799.31;10332290;28;21085;-74
2022/08/26 05:02:40;;;;;;;7.40;4.97;;;;;;;24.00;51.11;99791.81;10342784;28;20510;-75
2022/08/26 05:07:43;;;;;;;6.07;5.05;;;;;;;23.94;51.64;99803.56;10347771;28;20668;-73
2022/08/26 05:12:44;;;;;;;6.00;5.40;;;;;;;23.93;51.91;99796.47;10345538;28;20064;-74
2022/08/26 05:17:46;;;;;;;7.28;5.38;;;;;;;23.90;51.67;99796.91;10340409;28;20053;-74
2022/08/26 05:22:48;;;;;;;6.10;5.47;;;;;;;23.96;52.10;99798.75;10345885;28;20057;-74
2022/08/26 05:27:51;;;;;;;6.32;5.57;;;;;;;23.98;52.52;99804.78;10350885;28;20859;-74
2022/08/26 05:32:53;;;;;;;7.80;5.73;;;;;;;23.92;52.03;99810.28;10348284;28;20518;-75
2022/08/26 05:37:55;;;;;;;6.28;5.38;;;;;;;23.94;52.46;99819.88;10346486;28;20112;-74
2022/08/26 05:42:59;;;;;;;7.38;5.95;;;;;;;23.91;52.32;99822.19;10346330;28;20083;-74
2022/08/26 05:48:02;;;;;;;8.55;5.95;;;;;;;23.87;53.34;99829.97;10347817;28;20068;-73
2022/08/26 05:53:07;;;;;;;6.28;5.47;;;;;;;23.85;52.82;99826.63;10348069;28;20045;-73
2022/08/26 05:58:10;;;;;;;5.82;5.22;;;;;;;23.75;52.48;99824.41;10356250;28;20247;-74
2022/08/26 06:03:12;;;;;;;8.27;5.80;;;;;;;23.71;52.81;99825.06;10347442;28;20231;-75
2022/08/26 06:08:13;;;;;;;5.88;5.28;;;;;;;23.71;52.57;99823.16;10347433;28;20379;-74
2022/08/26 06:13:17;;;;;;;6.78;5.47;;;;;;;23.71;52.93;99836.75;10347141;28;20052;-75
2022/08/26 06:18:35;;;;;;;9.05;6.30;;;;;;;23.68;53.99;99836.38;10347772;28;20042;-73
2022/08/26 06:28:57;;;;;;;8.00;5.80;;;;;;;23.79;52.65;99835.63;10345451;28;20072;-76
2022/08/26 06:34:00;;;;;;;10.68;5.60;;;;;;;23.79;53.28;99846.50;10340916;28;20057;-73
2022/08/26 06:39:05;;;;;;;6.63;5.40;;;;;;;23.78;53.54;99845.69;10344133;28;20671;-71
2022/08/26 06:44:06;;;;;;;8.73;5.35;;;;;;;23.87;54.14;99861.75;10352492;28;20057;-75
2022/08/26 06:49:08;;;;;;;8.70;5.85;;;;;;;23.89;53.45;99849.59;10352359;28;20724;-74
2022/08/26 06:54:10;;;;;;;6.53;5.75;;;;;;;24.00;53.70;99851.63;10350886;28;20537;-72
2022/08/26 06:59:12;;;;;;;7.10;5.80;;;;;;;24.12;53.57;99856.31;10349605;28;20099;-74
2022/08/26 07:04:15;;;;;;;6.28;4.72;;;;;;;24.20;52.85;99850.63;10346945;28;20488;-74
2022/08/26 07:09:26;;;;;;;6.28;5.68;;;;;;;24.42;52.46;99856.44;10347617;28;20459;-74
2022/08/26 07:14:28;;;;;;;8.32;6.05;;;;;;;24.62;52.10;99859.03;10351416;28;20104;-75
2022/08/26 07:19:29;;;;;;;7.85;5.40;;;;;;;24.88;51.52;99854.34;10351178;28;20131;-72
2022/08/26 07:24:34;;;;;;;7.45;5.63;;;;;;;25.17;50.42;99849.97;10353577;28;20041;-72
2022/08/26 07:29:38;;;;;;;6.97;6.07;;;;;;;25.45;50.24;99845.06;10357897;28;20061;-73
2022/08/26 07:34:41;;;;;;;6.68;5.35;;;;;;;25.79;49.92;99846.19;10350926;28;20045;-71
2022/08/26 07:39:43;;;;;;;;;;;;;;;26.14;48.86;99847.34;10347403;28;20057;-71
2022/08/26 07:44:44;;;;;;;7.18;5.95;;;;;;;26.51;47.95;99841.66;10347351;28;20584;-74
2022/08/26 07:49:46;;;;;;;8.15;5.57;;;;;;;26.80;46.73;99837.97;10346879;28;20052;-73
2022/08/26 07:54:57;;;;;;;9.20;5.18;;;;;;;27.09;46.93;99843.44;10345714;28;20060;-72
2022/08/26 07:59:59;;;;;;;6.00;5.00;;;;;;;27.52;46.56;99847.59;10346340;28;20045;-72
2022/08/26 08:05:01;;;;;;;6.90;5.95;;;;;;;27.80;45.26;99842.31;10346894;28;20055;-74
2022/08/26 08:10:03;;;;;;;8.47;6.07;;;;;;;28.06;44.31;99849.06;10351354;28;20139;-73
2022/08/26 08:15:12;;;;;;;7.32;6.13;;;;;;;28.36;44.02;99850.63;10346091;28;20049;-72
2022/08/26 08:20:14;;;;;;;7.32;5.68;;;;;;;28.67;42.67;99851.06;10349016;28;20069;-74
2022/08/26 08:25:15;;;;;;;8.32;5.78;;;;;;;28.87;42.76;99845.88;10352348;28;20061;-73
2022/08/26 08:30:20;;;;;;;7.13;5.40;;;;;;;29.09;42.37;99850.50;10349700;28;20050;-73
2022/08/26 08:35:25;;;;;;;7.13;5.63;;;;;;;29.38;42.48;99851.16;10363127;28;20489;-71
2022/08/26 08:40:26;;;;;;;8.40;5.50;;;;;;;29.66;41.55;99842.91;10345884;28;20412;-72
2022/08/26 08:45:34;;;;;;;8.68;5.57;;;;;;;29.91;41.18;99842.34;10341333;28;20151;-75
2022/08/26 08:50:47;;;;;;;5.93;5.30;;;;;;;29.95;41.04;99838.81;10334246;28;20052;-71
2022/08/26 08:55:58;;;;;;;7.57;5.65;;;;;;;29.94;40.11;99825.34;10345197;28;20045;-73
2022/08/26 09:01:03;;;;;;;12.25;6.70;;;;;;;29.95;41.59;99836.06;10345348;28;20056;-70
2022/08/26 09:06:16;;;;;;;8.23;5.38;;;;;;;30.14;40.63;99835.66;10344759;28;20049;-74
2022/08/26 09:11:19;;;;;;;8.93;6.00;;;;;;;30.49;40.67;99839.72;10348402;28;20045;-76
2022/08/26 09:16:30;;;;;;;8.68;5.90;;;;;;;30.83;38.55;99836.63;10342090;28;20055;-72
2022/08/26 09:21:32;;;;;;;6.07;5.55;;;;;;;30.85;38.37;99834.41;10344012;28;20732;-75
2022/08/26 09:26:44;;;;;;;6.65;5.97;;;;;;;30.72;40.32;99840.44;10351982;28;20057;-74
2022/08/26 09:31:47;;;;;;;6.70;6.05;;;;;;;30.76;38.81;99836.88;10345409;28;20068;-74
2022/08/26 09:36:57;;;;;;;;;;;;;;;30.88;39.20;99835.81;10353871;28;20393;-75
2022/08/26 09:42:21;;;;;;;7.03;5.97;;;;;;;30.90;38.87;99826.22;10367576;28;19929;-74
2022/08/26 09:47:30;;;;;;;7.45;6.35;;;;;;;30.95;38.50;99822.66;10349375;28;20451;-72
2022/08/26 09:52:32;;;;;;;10.38;6.45;;;;;;;31.10;39.39;99814.47;10346116;28;20499;-74
2022/08/26 09:57:42;;;;;;;6.65;5.82;;;;;;;31.34;38.80;99814.81;10350009;28;20128;-73
2022/08/26 10:02:45;;;;;;;9.18;5.80;;;;;;;31.24;37.03;99812.03;10349305;28;20064;-71
2022/08/26 10:07:49;;;;;;;11.27;5.68;;;;;;;31.92;38.30;99797.28;10351166;28;20046;-73
2022/08/26 10:13:03;;;;;;;6.88;4.97;;;;;;;32.89;35.28;99792.63;10353418;28;20038;-73
2022/08/26 10:18:13;;;;;;;5.88;5.30;;;;;;;33.60;34.48;99785.00;10352121;28;20045;-71
2022/08/26 10:23:20;;;;;;;8.25;5.57;;;;;;;34.30;33.15;99775.56;10368999;28;20049;-77
2022/08/26 10:28:42;;;;;;;8.57;5.60;;;;;;;35.57;31.04;99774.94;10354803;28;21112;-75
2022/08/26 10:33:44;;;;;;;;;;;;;;;34.76;31.46;99761.19;10348693;28;20048;-74
2022/08/26 10:38:47;;;;;;;5.65;5.05;;;;;;;34.08;31.65;99756.72;10366005;28;19967;-77
2022/08/26 10:43:57;;;;;;;9.57;5.00;;;;;;;34.04;33.03;99750.97;10355395;28;20331;-75
2022/08/26 10:49:04;;;;;;;8.50;5.07;;;;;;;35.11;31.06;99744.41;10350529;28;20041;-75
2022/08/26 10:54:20;;;;;;;6.97;5.03;;;;;;;39.46;25.13;99738.25;10347052;28;20057;-74
2022/08/26 10:59:49;;;;;;;4.65;4.28;;;;;;;38.59;24.40;99741.78;10350792;28;20053;-74
2022/08/26 11:05:13;;;;;;;6.72;5.28;;;;;;;35.68;30.27;99739.59;10350709;28;20054;-77
2022/08/26 11:10:15;;;;;;;6.15;4.82;;;;;;;37.75;27.64;99725.75;10358365;28;20045;-76
2022/08/26 11:15:19;;;;;;;6.80;4.50;;;;;;;36.61;27.97;99727.59;10355284;28;20057;-76
2022/08/26 11:20:44;;;;;;;6.25;4.82;;;;;;;37.39;27.13;99723.88;10350698;28;20159;-76
2022/08/26 11:26:13;;;;;;;5.68;5.05;;;;;;;34.67;30.68;99721.50;10347544;28;20053;-75
2022/08/26 11:31:38;;;;;;;5.85;5.00;;;;;;;33.81;33.14;99716.72;10366374;28;20782;-75
2022/08/26 11:36:41;;;;;;;6.78;5.55;;;;;;;32.80;33.77;99711.66;10358698;28;20053;-73
2022/08/26 11:41:46;;;;;;;9.50;6.80;;;;;;;32.12;35.44;99702.03;10351699;28;20079;-77
2022/08/26 11:46:52;;;;;;;11.98;8.43;;;;;;;32.03;35.81;99704.50;10351685;28;20158;-75
2022/08/26 11:52:18;;;;;;;9.63;7.93;;;;;;;31.87;36.36;99698.19;10349474;28;20048;-73
2022/08/26 11:57:21;;;;;;;12.13;8.88;;;;;;;31.02;37.84;99692.19;10348303;28;20449;-73
2022/08/26 12:02:24;;;;;;;11.20;9.13;;;;;;;30.89;38.48;99692.66;10350199;28;20057;-73
2022/08/26 12:07:28;;;;;;;10.10;9.10;;;;;;;30.47;39.00;99691.72;10353055;28;20484;-73
2022/08/26 12:12:39;;;;;;;10.95;9.40;;;;;;;30.44;38.98;99696.94;10351338;28;20045;-72
2022/08/26 12:17:41;;;;;;;11.18;10.07;;;;;;;30.47;39.43;99696.41;10342998;28;20069;-73
2022/08/26 12:22:43;;;;;;;14.13;10.30;;;;;;;30.59;39.26;99691.50;10351110;28;20157;-72
2022/08/26 12:27:49;;;;;;;11.80;10.25;;;;;;;30.73;38.93;99682.75;10346154;28;20162;-72
2022/08/26 12:33:09;;;;;;;10.88;9.15;;;;;;;31.10;38.17;99670.75;10347124;28;20153;-72
2022/08/26 12:38:25;;;;;;;9.90;8.98;;;;;;;31.36;38.27;99658.66;10351959;28;20064;-72
2022/08/26 12:43:36;;;;;;;10.38;9.48;;;;;;;31.36;37.73;99658.66;10351309;28;20063;-74
2022/08/26 12:48:41;;;;;;;12.02;9.00;;;;;;;31.32;38.26;99643.81;10355566;28;20047;-76
2022/08/26 12:53:43;;;;;;;11.18;9.30;;;;;;;31.63;37.37;99652.06;10350034;28;20045;-74
2022/08/26 12:58:58;;;;;;;;;;;;;;;31.65;36.60;99655.34;10347657;28;20068;-75
2022/08/26 13:03:59;;;;;;;9.32;8.48;;;;;;;31.66;38.03;99657.00;10370893;28;19960;-75
2022/08/26 13:09:23;;;;;;;8.63;7.80;;;;;;;31.78;37.07;99647.59;10359806;28;20057;-74
2022/08/26 13:14:25;;;;;;;10.00;8.68;;;;;;;32.07;36.96;99643.09;10381500;28;20065;-75
2022/08/26 13:19:26;;;;;;;12.25;8.70;;;;;;;32.42;35.73;99626.72;10355076;28;20045;-73
2022/08/26 13:24:37;;;;;;;9.80;8.27;;;;;;;32.83;34.67;99620.16;10349798;28;20124;-74
2022/08/26 13:29:39;;;;;;;7.30;6.60;;;;;;;33.10;33.94;99617.72;10359692;28;20053;-75
2022/08/26 13:34:41;;;;;;;6.03;5.53;;;;;;;33.12;32.69;99614.69;10346197;28;21518;-73
2022/08/26 13:39:42;;;;;;;6.00;5.47;;;;;;;33.11;31.87;99608.34;10342046;28;20114;-73
2022/08/26 13:44:44;;;;;;;;;;;;;;;33.25;31.60;99593.91;10382164;28;20053;-72
2022/08/26 13:49:45;;;;;;;9.07;8.38;;;;;;;33.51;32.12;99590.88;10354515;28;20498;-73
2022/08/26 13:54:47;;;;;;;10.55;9.65;;;;;;;33.74;32.28;99592.06;10391833;28;20045;-73
2022/08/26 13:59:50;;;;;;;10.93;9.93;;;;;;;33.27;33.05;99591.69;10353017;28;20140;-72
2022/08/26 14:04:53;;;;;;;11.30;9.73;;;;;;;32.74;33.65;99609.75;10344857;28;20060;-74
2022/08/26 14:09:55;;;;;;;11.27;10.13;;;;;;;32.03;36.33;99631.00;10344646;28;20180;-76
2022/08/26 14:14:56;;;;;;;;;;;;;;;31.58;37.01;99632.78;10336804;28;20076;-73
2022/08/26 14:19:58;;;;;;;12.23;10.47;;;;;;;31.16;37.02;99631.97;10331617;28;19929;-71
2022/08/26 14:24:59;;;;;;;11.40;10.40;;;;;;;30.83;37.58;99631.38;10347538;28;20721;-75
2022/08/26 14:30:04;;;;;;;9.95;9.05;;;;;;;30.75;37.25;99639.38;10345024;28;20096;-74
2022/08/26 14:35:09;;;;;;;10.45;9.50;;;;;;;30.38;37.62;99643.09;10338800;28;20054;-72
2022/08/26 14:40:20;;;;;;;10.60;9.27;;;;;;;30.18;37.46;99630.13;10350988;28;20095;-73
2022/08/26 14:45:25;;;;;;;11.27;10.27;;;;;;;30.10;38.21;99623.22;10331026;28;20264;-76
2022/08/26 14:50:26;;;;;;;10.82;9.90;;;;;;;29.88;38.88;99624.22;10315642;28;20054;-73
2022/08/26 14:55:31;;;;;;;10.05;9.15;;;;;;;29.83;37.70;99632.44;10348003;28;20800;-73
2022/08/26 15:00:38;;;;;;;9.38;8.07;;;;;;;29.77;36.79;99622.47;10352123;28;20055;-72
2022/08/26 15:05:44;;;;;;;8.98;8.10;;;;;;;29.73;37.60;99621.38;10349477;28;20129;-76
2022/08/26 15:10:49;;;;;;;7.75;6.65;;;;;;;29.83;36.82;99624.22;10367025;28;20049;-74
2022/08/26 15:15:50;;;;;;;8.77;7.22;;;;;;;29.60;37.55;99634.44;10329999;28;20375;-76
2022/08/26 15:20:52;;;;;;;7.53;6.80;;;;;;;29.65;38.19;99636.44;10361314;28;20072;-74
2022/08/26 15:25:53;;;;;;;8.43;7.57;;;;;;;29.74;37.50;99623.03;10358421;28;20053;-71
2022/08/26 15:30:59;;;;;;;12.40;11.13;;;;;;;29.41;38.55;99630.50;10352615;28;20689;-72
2022/08/26 15:36:09;;;;;;;11.75;10.05;;;;;;;29.51;38.76;99643.47;10358670;28;20069;-78
2022/08/26 15:41:11;;;;;;;12.02;11.02;;;;;;;29.55;39.63;99637.19;10352319;28;20053;-73
2022/08/26 15:46:12;;;;;;;13.48;12.30;;;;;;;29.46;41.17;99638.78;10364968;28;20497;-74
2022/08/26 15:51:32;;;;;;;12.77;11.75;;;;;;;29.35;42.18;99642.50;10353164;28;20045;-75
2022/08/26 15:56:36;;;;;;;13.20;11.98;;;;;;;29.38;42.54;99636.50;10350563;28;20080;-74
2022/08/26 16:01:39;;;;;;;16.80;12.65;;;;;;;29.64;42.20;99645.75;10342663;28;20072;-76
2022/08/26 16:06:42;;;;;;;13.23;11.88;;;;;;;29.74;42.24;99637.56;10353064;28;20503;-74
2022/08/26 16:11:43;;;;;;;13.10;11.90;;;;;;;29.41;42.52;99627.75;10368155;28;20085;-75
2022/08/26 16:16:45;;;;;;;13.00;11.70;;;;;;;29.49;42.75;99627.28;10360005;28;20061;-73
2022/08/26 16:21:49;;;;;;;13.25;12.05;;;;;;;29.42;43.03;99646.66;10347622;28;20144;-73
2022/08/26 16:26:50;;;;;;;13.20;12.05;;;;;;;29.29;43.35;99649.03;10354583;28;20057;-74
2022/08/26 16:31:53;;;;;;;13.23;11.83;;;;;;;29.04;43.72;99659.50;10350304;28;20049;-76
2022/08/26 16:36:54;;;;;;;14.30;12.88;;;;;;;29.00;44.57;99669.31;10347895;28;20424;-73
2022/08/26 16:41:56;;;;;;;14.88;13.57;;;;;;;28.93;44.53;99679.69;10346370;28;20049;-74
2022/08/26 16:46:57;;;;;;;15.53;14.23;;;;;;;28.89;44.78;99679.34;10348947;28;20501;-74
2022/08/26 16:51:59;;;;;;;18.10;16.23;;;;;;;28.72;45.42;99674.00;10346712;28;20080;-74
2022/08/26 16:57:01;;;;;;;19.10;16.88;;;;;;;28.63;45.93;99678.28;10347819;28;20297;-73
2022/08/26 17:02:02;;;;;;;20.20;18.20;;;;;;;28.59;46.12;99679.84;10347191;28;20072;-75
2022/08/26 17:07:04;;;;;;;21.40;19.50;;;;;;;28.52;46.65;99685.50;10353339;28;20042;-73
2022/08/26 17:12:06;;;;;;;24.25;22.08;;;;;;;28.43;47.12;99694.44;10364821;28;20108;-73
2022/08/26 17:17:07;;;;;;;24.90;22.53;;;;;;;28.34;46.92;99694.03;10365949;28;20071;-73
2022/08/26 17:22:09;;;;;;;27.08;24.48;;;;;;;28.21;47.13;99709.78;10340183;28;20053;-72
2022/08/26 17:27:11;;;;;;;26.25;23.85;;;;;;;28.08;47.76;99710.13;10345197;28;20054;-72
2022/08/26 17:32:12;;;;;;;26.90;24.42;;;;;;;27.97;47.55;99702.84;10347897;28;20068;-73
2022/08/26 17:37:13;;;;;;;25.73;23.35;;;;;;;27.58;47.97;99694.59;10347651;28;20067;-74
2022/08/26 17:42:17;;;;;;;26.67;23.88;;;;;;;27.42;49.04;99709.94;10347122;28;20064;-73
2022/08/26 17:47:19;;;;;;;26.25;23.90;;;;;;;27.46;48.53;99717.38;10346544;28;20046;-73
2022/08/26 17:52:20;;;;;;;24.17;21.83;;;;;;;27.25;48.74;99726.25;10347720;28;21073;-72
2022/08/26 17:57:22;;;;;;;24.17;22.10;;;;;;;27.15;49.37;99727.75;10350873;28;20057;-72
2022/08/26 18:02:24;;;;;;;26.23;23.83;;;;;;;27.02;49.43;99738.97;10352432;28;20275;-76
2022/08/26 18:07:25;;;;;;;22.58;20.55;;;;;;;26.96;49.64;99748.16;10342110;28;20429;-73
2022/08/26 18:12:26;;;;;;;21.52;19.60;;;;;;;26.90;49.32;99752.72;10349921;28;20151;-73
2022/08/26 18:17:29;;;;;;;21.00;19.20;;;;;;;26.73;50.58;99752.63;10340365;28;20049;-74
2022/08/26 18:22:30;;;;;;;20.17;18.48;;;;;;;26.74;50.05;99753.47;10342459;28;20061;-73
2022/08/26 18:27:31;;;;;;;19.88;17.92;;;;;;;26.69;50.10;99750.63;10344528;28;20049;-73
2022/08/26 18:32:34;;;;;;;17.52;16.02;;;;;;;26.62;50.28;99758.94;10355428;28;20058;-75
2022/08/26 18:37:36;;;;;;;19.15;15.70;;;;;;;26.52;50.33;99764.19;10354462;28;20061;-72
2022/08/26 18:42:49;;;;;;;17.73;16.02;;;;;;;26.23;51.08;99758.66;10327715;28;20053;-74
2022/08/26 18:47:54;;;;;;;17.25;15.55;;;;;;;25.96;51.60;99764.56;10336354;28;20154;-74
2022/08/26 18:52:55;;;;;;;17.40;15.90;;;;;;;25.84;53.03;99766.47;10362746;28;20140;-77
2022/08/26 18:57:57;;;;;;;17.50;15.90;;;;;;;25.87;53.78;99771.44;10354013;28;20227;-74
2022/08/26 19:02:58;;;;;;;16.05;14.75;;;;;;;25.95;53.14;99773.78;10349671;28;20576;-74
2022/08/26 19:08:01;;;;;;;16.43;14.93;;;;;;;25.78;54.05;99779.13;10351461;28;20053;-74
2022/08/26 19:13:03;;;;;;;17.15;15.52;;;;;;;25.65;53.74;99774.72;10351973;28;20288;-75
2022/08/26 19:18:08;;;;;;;15.70;14.20;;;;;;;25.63;53.91;99785.03;10354380;28;20531;-77
2022/08/26 19:23:11;;;;;;;14.65;13.35;;;;;;;25.48;54.09;99790.09;10359949;28;20049;-72
2022/08/26 19:28:32;;;;;;;15.63;14.00;;;;;;;25.39;54.01;99814.13;10359664;28;20041;-74
2022/08/26 19:33:33;;;;;;;14.40;13.07;;;;;;;25.43;53.81;99815.28;10357308;28;20062;-73
2022/08/26 19:38:34;;;;;;;14.38;13.00;;;;;;;25.43;53.90;99822.63;10356823;28;20667;-74
2022/08/26 19:43:36;;;;;;;14.70;13.25;;;;;;;25.44;53.57;99843.38;10346921;28;20068;-73
2022/08/26 19:48:44;;;;;;;13.35;12.15;;;;;;;25.44;54.72;99848.81;10344015;28;20211;-76
2022/08/26 19:53:47;;;;;;;13.73;12.52;;;;;;;25.49;54.14;99840.78;10350772;28;20049;-74
2022/08/26 19:58:53;;;;;;;14.07;12.80;;;;;;;25.41;54.03;99834.59;10377836;28;20140;-73
2022/08/26 20:04:00;;;;;;;13.93;12.57;;;;;;;25.27;54.18;99827.66;10369700;28;20095;-73
2022/08/26 20:09:04;;;;;;;15.23;12.93;;;;;;;25.21;54.39;99820.41;10352955;28;20612;-75
2022/08/26 20:14:08;;;;;;;13.38;12.13;;;;;;;25.17;54.75;99821.91;10362301;28;20143;-75
2022/08/26 20:24:38;;;;;;;12.90;11.70;;;;;;;25.17;54.73;99816.47;10376386;28;20049;-74
2022/08/26 20:29:42;;;;;;;12.95;11.82;;;;;;;25.20;55.78;99824.19;10380505;28;20592;-73
2022/08/26 20:34:43;;;;;;;13.18;11.93;;;;;;;25.20;55.92;99821.47;10379190;28;20049;-75
2022/08/26 20:39:47;;;;;;;13.07;11.80;;;;;;;25.21;56.19;99831.31;10378347;28;22856;-74
2022/08/26 20:44:51;;;;;;;12.15;11.13;;;;;;;25.17;56.51;99843.72;10314305;28;20270;-72
2022/08/26 20:49:55;;;;;;;10.40;9.40;;;;;;;25.10;55.37;99842.97;10341153;28;20045;-73
2022/08/26 20:55:02;;;;;;;13.43;11.13;;;;;;;25.16;55.42;99847.47;10338812;28;20098;-75
2022/08/26 21:00:06;;;;;;;12.50;11.07;;;;;;;25.13;55.96;99847.94;10346402;28;20544;-75
2022/08/26 21:05:09;;;;;;;14.75;13.45;;;;;;;24.95;56.71;99855.09;10381073;28;20500;-74
2022/08/26 21:10:11;;;;;;;13.40;12.20;;;;;;;25.03;57.19;99852.03;10360375;28;20132;-74
2022/08/26 21:15:13;;;;;;;14.63;13.30;;;;;;;24.96;57.26;99859.47;10363959;28;20099;-73
2022/08/26 21:20:15;;;;;;;14.48;13.10;;;;;;;24.78;58.06;99854.03;10361467;28;20073;-75
2022/08/26 21:25:19;;;;;;;15.20;13.85;;;;;;;24.85;57.50;99854.78;10376132;28;20052;-73
2022/08/26 21:30:22;;;;;;;14.13;12.70;;;;;;;24.93;56.90;99865.34;10377731;28;20148;-75
2022/08/26 21:35:24;;;;;;;14.63;13.35;;;;;;;24.87;57.30;99858.09;10358839;28;20677;-75
2022/08/26 21:40:26;;;;;;;13.45;12.00;;;;;;;24.87;57.43;99866.28;10376756;28;20060;-76
2022/08/26 21:45:28;;;;;;;13.20;11.93;;;;;;;24.81;56.62;99869.91;10381083;28;20057;-75
2022/08/26 21:50:29;;;;;;;13.10;11.80;;;;;;;24.75;57.39;99868.09;10383647;28;20420;-74
2022/08/26 21:55:34;;;;;;;12.75;11.45;;;;;;;24.73;57.41;99878.38;10377630;28;20729;-73
2022/08/26 22:00:35;;;;;;;15.13;11.85;;;;;;;24.65;57.45;99874.88;10379639;28;20144;-72
2022/08/26 22:05:44;;;;;;;11.32;10.23;;;;;;;24.69;58.10;99876.09;10380492;28;20054;-73
2022/08/26 22:10:51;;;;;;;12.20;10.98;;;;;;;24.57;57.19;99877.84;10384799;28;20056;-74
2022/08/26 22:15:53;;;;;;;12.50;10.85;;;;;;;24.45;58.31;99866.88;10387037;28;22171;-75
2022/08/26 22:20:56;;;;;;;10.93;9.80;;;;;;;24.32;57.92;99873.31;10382993;28;20144;-77
2022/08/26 22:25:58;;;;;;;11.50;10.38;;;;;;;24.17;59.68;99880.97;10387295;28;20739;-76
2022/08/26 22:31:00;;;;;;;11.93;10.25;;;;;;;24.06;59.23;99881.69;10386573;28;20050;-72
2022/08/26 22:36:02;;;;;;;11.23;10.15;;;;;;;24.03;59.42;99884.84;10389258;28;20077;-77
2022/08/26 22:41:06;;;;;;;10.70;9.73;;;;;;;24.19;58.89;99881.56;10391246;28;20492;-74
2022/08/26 22:46:09;;;;;;;12.27;9.18;;;;;;;23.99;59.38;99881.75;10391521;28;20051;-74
2022/08/26 22:51:11;;;;;;;11.77;8.85;;;;;;;24.06;59.07;99889.84;10388994;28;20518;-74
2022/08/26 22:56:13;;;;;;;11.18;9.32;;;;;;;24.09;59.45;99875.78;10385825;28;20504;-75
2022/08/26 23:01:15;;;;;;;11.43;10.20;;;;;;;24.06;59.59;99887.13;10386971;28;20136;-75
2022/08/26 23:06:17;;;;;;;10.48;9.55;;;;;;;24.13;60.30;99887.91;10386225;28;20065;-74
2022/08/26 23:11:18;;;;;;;11.02;9.57;;;;;;;24.05;60.30;99908.03;10387939;28;20075;-73
2022/08/26 23:16:20;;;;;;;10.32;9.07;;;;;;;24.07;60.01;99902.38;10387204;28;20046;-73
2022/08/26 23:21:21;;;;;;;13.50;9.85;;;;;;;23.97;60.99;99900.97;10384213;28;20045;-74
2022/08/26 23:26:22;;;;;;;11.00;9.45;;;;;;;23.97;60.58;99905.56;10388925;28;20051;-76
2022/08/26 23:31:24;;;;;;;9.63;8.52;;;;;;;23.97;59.86;99895.53;10390828;28;20839;-75
2022/08/26 23:36:25;;;;;;;10.55;8.73;;;;;;;23.81;60.44;99899.59;10398695;28;20558;-74
2022/08/26 23:41:27;;;;;;;10.95;9.00;;;;;;;23.89;61.28;99908.56;10422631;28;20063;-76